Airfield :
LOGIN :

Register | Disclaimer

   EN    FR    IT 

 










Legend :    VFR   Marginal VFR   IFR   Intensive IFR   Very Intensive IFR
Visi :
Ceiling :
>= 8 km
>= 3000ft
5 to 8 km
1000 to 3000 ft
1500m to 5 km
500 to 1000 ft
800 to 1500m
200 to 500 ft
< 800m
< 200 ft
Symbols :   Thunderstorms  Fog  Heavy snow  Heavy precipitations  Wind > 20 kt
SIGMETs :     Misc.  Thunderstorms  Icing  Turbulence  Mountain Waves  Volcanic Ashes






- Airport Elevation : 183 ft
- IATA code : HAJ


EDDV - Hanover/Langenhagen Int.

CURRENT METAR :
  • 161850Z 22024G39KT 190V250 CAVOK 18/06 Q0996 TEMPO 22030G45KT

EXPIRED METARs :
  • 161820Z 22021G36KT 180V250 CAVOK 17/06 Q0996 TEMPO 22030G45KT
  • 161750Z 22024G40KT 190V250 CAVOK 18/07 Q0997 TEMPO 22030G45KT
  • 161720Z 22022G32KT CAVOK 18/08 Q0997 TEMPO 22030G45KT
  • 161650Z 22021G34KT CAVOK 17/08 Q0998 TEMPO 22030G45KT
  • 161620Z 22017G30KT CAVOK 17/08 Q0998 TEMPO 20025G40KT

TAF AMD TAF EDDV
Valid from the 16 at 19:00 until the 17 at 18:00 UTC


161910Z 1619/1718 22020G35KT 9999 BKN030
TEMPO 1619/1622 23030G55KT
PROB30
TEMPO 1621/1701 29025G45KT 3500 RA BKN012
BECMG 1701/1703 25015G30KT



MET'MAP, your aeronautical weather chart ! - Copyright ORBIFLY December 2007 - Disclaimer

ORBIFLY MET'MAP TEAM :

Programming & Development : Alexandra Zaïnal
Concept & original design : Baudouin d'Aumeries
Assistance for programming : Marc-Olivier Méhu
Technical & hardware support : Manuel Goepfert

Contact : metmap@orbifly.com




SOURCES & CREDITS :

   NOAA